• Join FlightAware (Why Join?)
  • Login
  • US Flag 
02:15AM EDT


 

Airport Tracker/Info


-or-


 

Live Flight TrackerFlight Track Log ✈ FLG4262 ✈ 12-Nov-2013 ✈ KDTW - KBGM

Flight Track Log - Related Links

Times and Time Zones

All times are in EST time to prevent confusion due to time zone crossing. See the FLG4262 flight status page for this flight to view local times or setup timezone preferences in your user account.

Time Position Orientation Groundspeed Altitude Reporting Facility
EST Latitude Longitude Course Direction KTS MPH feet Rate Location/Type
04:00PM 42.2297 -83.3339 31° Northeast 167 192 1,100  Level Cleveland Center
04:00PM 42.2386 -83.3267 31° Northeast 164 189 1,700 2,460 Climbing Cleveland Center
04:01PM 42.2797 -83.2817 39° Northeast 209 241 4,100 2,400 Climbing Cleveland Center
04:02PM 42.3128 -83.2422 41° Northeast 224 258 5,900 2,460 Climbing Cleveland Center
04:02PM 42.3267 -83.2175 53° Northeast 264 304 6,700 2,460 Climbing Cleveland Center
04:03PM 42.3242 -83.1439 93° East 279 321 8,500 2,700 Climbing Cleveland Center
04:03PM 42.3203 -83.1094 99° East 305 351 9,500 1,440 Climbing Cleveland Center
04:04PM 42.3094 -83.0297 100° East 302 348 10,000 240 Climbing Cleveland Center
04:05PM 42.2969 -82.9056 98° East 327 376 10,000 900 Level Cleveland Center
04:06PM 42.3125 -82.7856 80° East 326 375 11,900 1,860 Climbing Cleveland Center
04:07PM 42.3325 -82.6592 78° East 339 390 13,900 1,980 Climbing Cleveland Center
04:08PM 42.3583 -82.5044 77° East 350 403 16,100 1,740 Climbing Cleveland Center
04:09PM 42.3642 -82.3672 87° East 374 430 17,600 1,200 Climbing Cleveland Center
04:10PM 42.3589 -82.2225 93° East 386 444 18,600 1,200 Climbing Cleveland Center
04:11PM 42.3511 -82.0689 94° East 384 442 20,100 1,200 Climbing Cleveland Center
04:12PM 42.3456 -81.9206 93° East 389 448 21,100 960 Climbing Cleveland Center
04:13PM 42.3378 -81.7681 94° East 399 459 22,100 1,020 Climbing Cleveland Center
04:14PM 42.3314 -81.6128 93° East 407 468 23,300 900 Climbing Cleveland Center
04:15PM 42.3233 -81.4578 94° East 410 472 24,000 720 Climbing Cleveland Center
04:16PM 42.3142 -81.2711 94° East 419 482 24,800 720 Climbing Cleveland Center
04:17PM 42.3069 -81.1075 93° East 429 494 25,500 660 Climbing Cleveland Center
04:18PM 42.2978 -80.9436 94° East 431 496 26,200 600 Climbing Cleveland Center
04:19PM 42.2894 -80.7781 94° East 436 502 26,800 480 Climbing Cleveland Center
04:20PM 42.2808 -80.6108 94° East 439 505 27,300 480 Climbing Cleveland Center
04:21PM 42.2717 -80.4422 94° East 445 512 27,800 480 Climbing Cleveland Center
04:22PM 42.2628 -80.2719 94° East 450 518 28,300 480 Climbing Cleveland Center
04:23PM 42.2525 -80.1019 95° East 451 519 28,800 300 Climbing Cleveland Center
04:24PM 42.2400 -79.9039 95° East 449 517 29,000 60 Climbing Cleveland Center
04:26PM 42.2283 -79.7317 95° East 461 531 29,000  Level Cleveland Center
04:27PM 42.2164 -79.5572 95° East 467 537 29,000  Level Cleveland Center
04:28PM 42.2058 -79.3803 95° East 474 545 29,000 -240 Level Cleveland Center
04:29PM 42.1931 -79.2017 95° East 479 551 28,500 -540 Descending Cleveland Center
04:30PM 42.1897 -79.0244 91° East 477 549 28,000 -300 Descending Cleveland Center
04:31PM 42.1936 -78.8281 88° East 468 539 28,000 -120 Level Cleveland Center
04:32PM 42.1953 -78.6569 89° East 460 529 27,800 -660 Descending Cleveland Center
04:33PM 42.1992 -78.4856 88° East 460 529 26,700 -1,260 Descending Cleveland Center
04:34PM 42.2011 -78.2797 89° East 461 531 25,300 -1,200 Descending Cleveland Center
04:35PM 42.2036 -78.1100 89° East 458 527 24,300 -1,020 Descending Cleveland Center
04:36PM 42.2058 -77.9442 89° East 450 518 23,300 -1,020 Descending Cleveland Center
04:37PM 42.2069 -77.7803 89° East 444 511 22,300 -960 Descending Cleveland Center
04:38PM 42.2092 -77.6200 89° East 437 503 21,300 -1,620 Descending Cleveland Center
04:39PM 42.2081 -77.4325 90° East 423 487 19,000 -1,980 Descending Cleveland Center
04:40PM 42.2083 -77.2861 90° East 400 460 17,300 -1,020 Descending Cleveland Center
04:41PM 42.2094 -77.1478 89° East 377 434 16,900 -1,500 Descending Cleveland Center
04:42PM 42.2103 -77.0169 89° East 356 410 14,300 -2,700 Descending Cleveland Center
04:43PM 42.2103 -76.8861 90° East 351 404 11,400 -2,220 Descending Cleveland Center
04:44PM 42.2103 -76.7447 90° East 316 364 9,800 -1,380 Descending Cleveland Center
04:45PM 42.1867 -76.6425 107° East 306 352 8,600 -1,500 Descending Cleveland Center
04:46PM 42.1456 -76.5489 121° Southeast 292 336 6,800 -1,860 Descending Cleveland Center
04:47PM 42.1000 -76.4503 122° Southeast 286 329 4,800 -1,380 Descending New York Center
04:48PM 42.0625 -76.3633 120° Southeast 280 322 4,000 -420 Descending New York Center
04:49PM 42.0411 -76.2833 110° East 262 302 4,000  Level New York Center
04:50PM 42.0139 -76.1972 113° Southeast 230 265 4,000  Level New York Center
04:51PM 41.9922 -76.1200 111° Southeast 224 258 4,000  Level New York Center
04:52PM 41.9708 -76.0431 110° East 219 252 4,000  Level New York Center
04:53PM 41.9697 -75.9706 91° East 208 239 4,000  Level New York Center
04:54PM 41.9733 -75.8897 87° East 208 239 4,000  Level New York Center
04:55PM 42.0153 -75.8344 44° Northeast 186 214 4,000  Level New York Center
04:56PM 42.0642 -75.8606 338° Northwest 159 183 4,000  Level New York Center
04:57PM 42.1042 -75.8972 326° Northwest 159 183 4,000  Level New York Center
04:59PM 42.2000 -75.9667 334° Northwest  Level FlightAware Approximate
05:06PM 42.2084 -75.9796 334° Northwest  Level Estimated
05:07PM 42.2084 -75.9796 334° Northwest  Level Estimated
05:08PM 42.2084 -75.9796 334° Northwest  Level Estimated
05:09PM 42.2084 -75.9796 334° Northwest  Level Estimated
05:10PM 42.2084 -75.9796 334° Northwest  Level Estimated
05:11PM 42.2084 -75.9796 334° Northwest  Level Estimated
05:12PM 42.2084 -75.9796 334° Northwest  Level Estimated